world map with EYKA marked

EYKA - Airport

This information may not be accurate or current and is not valid for navigation or flight planning. No warranty of fitness for any purpose is made or implied.

flag of Lithuania

Donate via PayPal

Additional information is available on the NEW Great Circle Mapper

Location
City:  Kaunas, Lithuania
Name:Kaunas International Airport
ICAO / IATA:EYKA / KUN

Details
Type:Airport (Aerodrome, Airfield)
Use:Public/Civil
Latitude:54°57'50"N (54.963889)
Longitude:24°05'05"E (24.084722)
Elevation:256 ft (78 m)
Runways:1
Longest:10663 × 148 ft (3250 × 45 m)

Time
Timezone:UTC+2 (DST+5)
Local Time:

Weather
METAR:EYKA  181250Z 28006KT 250V310 CAVOK M02/M06 Q1005 R08/490393
TAF:EYKA  (expired)

Related Locations
Nearby:
Farthest:CHT: 11237 mi / 18085 km
Waitangi [Tuuta], CIT, NZ

Find:

   beyond  
but within

Other Information
Maps:
Links:
Sources:

  

Airport Diagram

Airport diagram for EYKA

Airport diagram PDF

 


Great Circle Mapper   Great Circle Mapper
Great Circle Mapper FAQ   Great Circle Mapper FAQ
  Karl's Home Page
KLS˛   KLS˛ Home
   GC on Facebook
Airlines of the World   Airlines of the World
Donate via PayPal


Copyright © 2004-2019, Karl L. Swartz. All rights reserved.
All trademarks mentioned herein belong to their respective owners.

Please see credits for attribution and copyright information.

Karl Swartz <karl@kls2.com>
  Powered by FreeBSD
Valid HTML 4.01!
Labeled with ICRA
hCard Microformat
Geo Microformat